Time;durP1;ratioP1;P1;durP2;ratioP2;P2;SDS_P1;SDS_P2;PMS_P1;PMS_P2;Temp;Humidity;BMP_temperature;BMP_pressure;BME280_temperature;BME280_humidity;BME280_pressure;Samples;Min_cycle;Max_cycle;Signal;HPM_P1;HPM_P2
2021/11/24 00:01:39;;;;;;;6.97;2.53;;;6.80;99.90;;;;;;5059248;28;20268;-70
2021/11/24 00:04:06;;;;;;;5.93;2.20;;;6.90;99.90;;;;;;5045692;28;20225;-70
2021/11/24 00:06:33;;;;;;;3.63;2.23;;;7.00;99.90;;;;;;5049767;28;20667;-70
2021/11/24 00:09:00;;;;;;;2.37;2.00;;;7.00;99.90;;;;;;5054407;28;20200;-70
2021/11/24 00:11:28;;;;;;;3.20;2.37;;;7.00;99.90;;;;;;5049078;28;20227;-70
2021/11/24 00:13:56;;;;;;;3.50;2.37;;;7.10;99.90;;;;;;5058307;28;20203;-70
2021/11/24 00:16:26;;;;;;;3.23;2.13;;;7.10;99.90;;;;;;5041762;28;20290;-70
2021/11/24 00:18:53;;;;;;;3.00;2.03;;;7.20;99.90;;;;;;5065900;28;20224;-70
2021/11/24 00:21:20;;;;;;;2.70;2.10;;;7.20;99.90;;;;;;5066398;28;20223;-70
2021/11/24 00:23:48;;;;;;;2.23;2.00;;;7.30;99.90;;;;;;5062435;28;20212;-70
2021/11/24 00:26:15;;;;;;;2.07;1.87;;;7.30;99.90;;;;;;5065387;28;20277;-70
2021/11/24 00:28:42;;;;;;;2.37;1.93;;;7.30;99.90;;;;;;5061357;28;20201;-70
2021/11/24 00:31:09;;;;;;;2.17;1.90;;;7.40;99.90;;;;;;5064280;28;20240;-70
2021/11/24 00:33:38;;;;;;;1.90;1.70;;;7.40;99.90;;;;;;5061623;28;20295;-70
2021/11/24 00:36:05;;;;;;;3.43;2.20;;;7.40;99.90;;;;;;5043588;28;20253;-70
2021/11/24 00:38:32;;;;;;;2.20;1.80;;;7.40;99.90;;;;;;5050151;28;20207;-70
2021/11/24 00:40:59;;;;;;;3.27;2.07;;;7.50;99.90;;;;;;5061174;28;20261;-70
2021/11/24 00:43:27;;;;;;;3.43;2.07;;;7.50;99.90;;;;;;5053006;28;20226;-70
2021/11/24 00:45:55;;;;;;;3.63;2.10;;;7.50;99.90;;;;;;5052635;28;20213;-70
2021/11/24 00:48:23;;;;;;;3.00;1.80;;;7.50;99.90;;;;;;5050210;28;20256;-70
2021/11/24 00:50:51;;;;;;;3.17;2.10;;;7.50;99.90;;;;;;5060690;28;20193;-70
2021/11/24 00:53:18;;;;;;;5.43;2.67;;;7.50;99.90;;;;;;5047565;28;20224;-70
2021/11/24 00:55:45;;;;;;;2.57;1.93;;;7.50;99.90;;;;;;5061765;28;20811;-70
2021/11/24 00:58:13;;;;;;;2.80;2.30;;;7.50;99.90;;;;;;5061721;28;20246;-70
2021/11/24 01:00:40;;;;;;;2.70;2.10;;;7.50;99.90;;;;;;5063647;28;20201;-70
2021/11/24 01:03:07;;;;;;;2.60;2.00;;;7.50;99.90;;;;;;5053646;28;20570;-70
2021/11/24 01:05:35;;;;;;;3.53;1.73;;;7.50;99.90;;;;;;5068490;28;20237;-70
2021/11/24 01:08:03;;;;;;;2.20;1.60;;;7.50;99.90;;;;;;5069283;28;20209;-70
2021/11/24 01:10:30;;;;;;;2.20;1.50;;;7.60;99.90;;;;;;5064074;28;20243;-70
2021/11/24 01:12:58;;;;;;;2.53;1.80;;;7.60;99.90;;;;;;5059288;28;20257;-70
2021/11/24 01:15:25;;;;;;;2.47;1.80;;;7.60;99.90;;;;;;5069060;28;20193;-70
2021/11/24 01:17:52;;;;;;;3.03;1.73;;;7.60;99.90;;;;;;5067140;28;20294;-70
2021/11/24 01:20:20;;;;;;;2.77;1.50;;;7.60;99.90;;;;;;5065229;28;20213;-70
2021/11/24 01:22:47;;;;;;;2.23;1.50;;;7.60;99.90;;;;;;5063352;28;20212;-71
2021/11/24 01:25:15;;;;;;;1.57;1.27;;;7.60;99.90;;;;;;5064340;28;20219;-70
2021/11/24 01:27:42;;;;;;;1.33;1.13;;;7.70;99.90;;;;;;5066496;28;20256;-70
2021/11/24 01:30:11;;;;;;;1.63;1.40;;;7.70;99.90;;;;;;5058932;28;20205;-70
2021/11/24 01:32:40;;;;;;;2.10;1.23;;;7.60;99.90;;;;;;5061851;28;20530;-70
2021/11/24 01:35:08;;;;;;;2.80;1.50;;;7.70;99.90;;;;;;5064840;28;20208;-70
2021/11/24 01:37:35;;;;;;;1.13;1.10;;;7.70;99.90;;;;;;5062815;28;20604;-70
2021/11/24 01:40:05;;;;;;;1.00;1.00;;;7.70;99.90;;;;;;5066533;28;20205;-70
2021/11/24 01:42:34;;;;;;;0.90;0.90;;;7.70;99.90;;;;;;5059639;28;20229;-70
2021/11/24 01:45:02;;;;;;;1.93;1.30;;;7.80;99.90;;;;;;5065068;28;20599;-70
2021/11/24 01:47:29;;;;;;;1.40;1.30;;;7.80;99.90;;;;;;5061180;28;20210;-70
2021/11/24 01:49:56;;;;;;;1.60;1.20;;;7.80;99.90;;;;;;5065105;28;20549;-70
2021/11/24 01:52:23;;;;;;;2.80;1.30;;;7.80;99.90;;;;;;5057895;28;20296;-70
2021/11/24 01:54:51;;;;;;;1.70;1.60;;;7.70;99.90;;;;;;5062511;28;20245;-70
2021/11/24 01:57:20;;;;;;;1.43;1.30;;;7.70;99.90;;;;;;5055868;28;20631;-70
2021/11/24 01:59:48;;;;;;;1.60;1.40;;;7.70;99.90;;;;;;5048696;28;20204;-70
2021/11/24 02:02:17;;;;;;;1.53;1.20;;;7.70;99.90;;;;;;5054800;28;20292;-70
2021/11/24 02:04:45;;;;;;;1.83;1.37;;;7.70;99.90;;;;;;5047307;28;20212;-70
2021/11/24 02:07:15;;;;;;;1.30;1.20;;;7.80;99.90;;;;;;5057636;28;20237;-70
2021/11/24 02:09:43;;;;;;;1.83;1.40;;;7.80;99.90;;;;;;5056121;28;20257;-69
2021/11/24 02:12:12;;;;;;;2.30;1.10;;;7.80;99.90;;;;;;5067467;28;20189;-70
2021/11/24 02:14:39;;;;;;;1.53;1.43;;;7.80;99.90;;;;;;5068332;28;20267;-70
2021/11/24 02:17:08;;;;;;;1.20;1.20;;;7.80;99.90;;;;;;5063870;28;20664;-70
2021/11/24 02:19:36;;;;;;;1.67;1.17;;;7.80;99.90;;;;;;5068124;28;20251;-70
2021/11/24 02:22:05;;;;;;;1.83;1.63;;;7.80;99.90;;;;;;5065518;28;20254;-70
2021/11/24 02:24:35;;;;;;;2.00;1.60;;;7.80;99.90;;;;;;5065427;28;20208;-70
2021/11/24 02:27:04;;;;;;;1.63;1.53;;;7.80;99.90;;;;;;5063507;28;20217;-70
2021/11/24 02:29:32;;;;;;;3.60;1.70;;;7.90;99.90;;;;;;5061115;28;20608;-70
2021/11/24 02:32:01;;;;;;;2.43;1.80;;;7.80;99.90;;;;;;5062527;28;20748;-70
2021/11/24 02:34:29;;;;;;;3.03;1.70;;;7.80;99.90;;;;;;5065279;28;20197;-70
2021/11/24 02:36:57;;;;;;;2.83;1.93;;;7.80;99.90;;;;;;5052181;28;20198;-70
2021/11/24 02:39:26;;;;;;;3.80;1.70;;;7.80;99.90;;;;;;5061717;28;20244;-70
2021/11/24 02:41:53;;;;;;;1.90;1.80;;;7.80;99.90;;;;;;5058730;28;20556;-70
2021/11/24 02:44:23;;;;;;;1.77;1.50;;;7.70;99.90;;;;;;5063210;28;20220;-70
2021/11/24 02:46:51;;;;;;;1.80;1.50;;;7.70;99.90;;;;;;5055622;28;20218;-70
2021/11/24 02:49:18;;;;;;;1.50;1.40;;;7.70;99.90;;;;;;5064180;28;20288;-70
2021/11/24 02:51:45;;;;;;;1.50;1.40;;;7.70;99.90;;;;;;5056468;28;20205;-70
2021/11/24 02:54:13;;;;;;;3.03;1.73;;;7.70;99.90;;;;;;5068239;28;20227;-70
2021/11/24 02:56:43;;;;;;;2.27;1.40;;;7.70;99.90;;;;;;5066977;28;20224;-70
2021/11/24 02:59:11;;;;;;;1.90;1.40;;;7.70;99.90;;;;;;5066935;28;20207;-70
2021/11/24 03:01:39;;;;;;;1.43;1.23;;;7.80;99.90;;;;;;5062974;28;20201;-70
2021/11/24 03:04:07;;;;;;;1.60;1.50;;;7.80;99.90;;;;;;5049711;28;20198;-70
2021/11/24 03:06:34;;;;;;;2.43;1.90;;;7.70;99.90;;;;;;5064391;28;20657;-69
2021/11/24 03:09:01;;;;;;;1.80;1.67;;;7.70;99.90;;;;;;5066060;28;20271;-69
2021/11/24 03:11:29;;;;;;;1.57;1.47;;;7.70;99.90;;;;;;5062278;28;20296;-69
2021/11/24 03:13:57;;;;;;;1.67;1.57;;;7.70;99.90;;;;;;5060422;28;20205;-70
2021/11/24 03:16:24;;;;;;;1.60;1.50;;;7.70;99.90;;;;;;5062297;28;20213;-70
2021/11/24 03:18:51;;;;;;;1.40;1.30;;;7.80;99.90;;;;;;5063483;28;20267;-70
2021/11/24 03:21:19;;;;;;;1.40;1.30;;;7.80;99.90;;;;;;5055830;28;20304;-70
2021/11/24 03:23:46;;;;;;;1.30;1.20;;;7.80;99.90;;;;;;5053000;28;20266;-70
2021/11/24 03:26:15;;;;;;;2.07;1.47;;;7.80;99.90;;;;;;5059445;28;20221;-70
2021/11/24 03:28:42;;;;;;;2.13;1.50;;;7.80;99.90;;;;;;5061260;28;20303;-70
2021/11/24 03:31:11;;;;;;;1.73;1.50;;;7.80;99.90;;;;;;5058699;28;20290;-70
2021/11/24 03:33:38;;;;;;;1.30;1.20;;;7.80;99.90;;;;;;5052947;28;20206;-70
2021/11/24 03:36:06;;;;;;;1.37;1.27;;;7.80;99.90;;;;;;5055005;28;20205;-70
2021/11/24 03:38:33;;;;;;;1.97;1.40;;;7.80;99.90;;;;;;5060217;28;20440;-70
2021/11/24 03:41:00;;;;;;;1.20;1.10;;;7.90;99.90;;;;;;5054817;28;20222;-70
2021/11/24 03:43:27;;;;;;;1.30;1.20;;;7.90;99.90;;;;;;5054721;28;20276;-70
2021/11/24 03:45:55;;;;;;;1.43;1.33;;;7.90;99.90;;;;;;5053087;28;20217;-70
2021/11/24 03:48:26;;;;;;;1.93;1.50;;;7.90;99.90;;;;;;5057851;28;20210;-70
2021/11/24 03:50:53;;;;;;;1.47;1.37;;;7.90;99.90;;;;;;5053263;28;20618;-70
2021/11/24 03:53:20;;;;;;;1.70;1.60;;;7.90;99.90;;;;;;5051275;28;20193;-70
2021/11/24 03:55:48;;;;;;;1.70;1.20;;;8.00;99.90;;;;;;5063659;28;20278;-70
2021/11/24 03:58:15;;;;;;;1.70;1.33;;;8.00;99.90;;;;;;5067160;28;20619;-70
2021/11/24 04:00:43;;;;;;;1.27;1.17;;;8.00;99.90;;;;;;5065130;28;20185;-70
2021/11/24 04:03:10;;;;;;;0.80;0.80;;;8.00;99.90;;;;;;5057249;28;20194;-70
2021/11/24 04:05:38;;;;;;;2.63;1.60;;;8.00;99.90;;;;;;5043012;28;20204;-70
2021/11/24 04:08:06;;;;;;;2.37;1.40;;;7.90;99.90;;;;;;5064464;28;20235;-71
2021/11/24 04:10:33;;;;;;;2.47;1.50;;;7.90;99.90;;;;;;5060529;28;20296;-70
2021/11/24 04:13:00;;;;;;;1.57;1.47;;;7.90;99.90;;;;;;5064803;28;20281;-70
2021/11/24 04:15:27;;;;;;;2.50;1.20;;;7.90;99.90;;;;;;5057227;28;20259;-70
2021/11/24 04:17:54;;;;;;;1.40;1.20;;;7.90;99.90;;;;;;5063105;28;20266;-70
2021/11/24 04:20:21;;;;;;;1.50;1.40;;;7.90;99.90;;;;;;5058595;28;20198;-70
2021/11/24 04:22:50;;;;;;;2.63;1.60;;;7.90;99.90;;;;;;5062278;28;20306;-70
2021/11/24 04:25:18;;;;;;;1.20;1.10;;;8.00;99.90;;;;;;5055310;28;20259;-70
2021/11/24 04:27:46;;;;;;;1.57;1.20;;;8.00;99.90;;;;;;5062763;28;20219;-70
2021/11/24 04:30:15;;;;;;;1.37;1.20;;;8.00;99.90;;;;;;5058607;28;20289;-70
2021/11/24 04:32:42;;;;;;;2.10;1.33;;;8.00;99.90;;;;;;5065649;28;20197;-70
2021/11/24 04:35:10;;;;;;;2.03;1.60;;;8.00;99.90;;;;;;5058100;28;20291;-70
2021/11/24 04:37:38;;;;;;;1.93;1.33;;;8.00;99.90;;;;;;5062760;28;20231;-71
2021/11/24 04:40:08;;;;;;;1.70;1.13;;;8.00;99.90;;;;;;5055804;28;20193;-71
2021/11/24 04:42:37;;;;;;;1.20;1.10;;;8.00;99.90;;;;;;5069200;28;20607;-71
2021/11/24 04:45:05;;;;;;;1.43;1.33;;;8.10;99.90;;;;;;5068363;28;20335;-70
2021/11/24 04:47:32;;;;;;;1.87;1.07;;;8.10;99.90;;;;;;5068161;28;20373;-70
2021/11/24 04:49:59;;;;;;;1.87;1.30;;;8.10;99.90;;;;;;5046027;28;20248;-71
2021/11/24 04:52:26;;;;;;;2.00;1.57;;;8.10;99.90;;;;;;5060268;28;20195;-70
2021/11/24 04:54:53;;;;;;;1.67;1.57;;;8.10;99.90;;;;;;5067868;28;20241;-70
2021/11/24 04:57:22;;;;;;;1.27;1.10;;;8.00;99.90;;;;;;5058960;28;20700;-71
2021/11/24 04:59:49;;;;;;;1.80;1.33;;;8.10;99.90;;;;;;5068416;28;20262;-70
2021/11/24 05:02:16;;;;;;;1.20;1.10;;;8.10;99.90;;;;;;5063965;28;20201;-71
2021/11/24 05:04:44;;;;;;;1.50;1.10;;;8.10;99.90;;;;;;5053564;28;20197;-71
2021/11/24 05:07:11;;;;;;;1.10;1.00;;;8.10;99.90;;;;;;5066134;28;20274;-71
2021/11/24 05:09:38;;;;;;;1.30;1.20;;;8.10;99.90;;;;;;5068316;28;20362;-71
2021/11/24 05:12:06;;;;;;;1.43;1.00;;;8.10;99.90;;;;;;5059678;28;20205;-71
2021/11/24 05:14:36;;;;;;;1.00;1.00;;;8.10;99.90;;;;;;5065686;28;20254;-71
2021/11/24 05:17:05;;;;;;;1.43;1.27;;;8.20;99.90;;;;;;5063028;28;20202;-71
2021/11/24 05:19:35;;;;;;;1.30;1.20;;;8.20;99.90;;;;;;5082000;28;20201;-71
2021/11/24 05:22:04;;;;;;;1.17;1.17;;;8.20;99.90;;;;;;5046936;28;20277;-70
2021/11/24 05:24:31;;;;;;;1.73;1.63;;;8.20;99.90;;;;;;5044110;28;20822;-71
2021/11/24 05:26:58;;;;;;;3.27;1.70;;;8.20;99.90;;;;;;5057573;28;20194;-71
2021/11/24 05:29:26;;;;;;;1.83;1.73;;;8.20;99.90;;;;;;5058843;28;20217;-71
2021/11/24 05:31:54;;;;;;;1.60;1.50;;;8.30;99.90;;;;;;5059436;28;20201;-71
2021/11/24 05:34:21;;;;;;;2.80;1.90;;;8.20;99.90;;;;;;5064136;28;20190;-71
2021/11/24 05:36:49;;;;;;;3.67;2.10;;;8.20;99.90;;;;;;5056160;28;20276;-71
2021/11/24 05:39:16;;;;;;;2.70;1.73;;;8.20;99.90;;;;;;5062591;28;20205;-71
2021/11/24 05:41:43;;;;;;;2.37;2.10;;;8.20;99.90;;;;;;5047473;28;20232;-71
2021/11/24 05:44:20;;;;;;;1.80;1.70;;;8.30;99.90;;;;;;5069587;28;20292;-71
2021/11/24 05:46:51;;;;;;;2.67;2.30;;;7.70;99.90;;;;;;5068022;28;20220;-71
2021/11/24 05:49:20;;;;;;;1.77;1.67;;;8.30;99.90;;;;;;5069215;28;20344;-71
2021/11/24 05:51:47;;;;;;;2.33;1.70;;;8.30;99.90;;;;;;5066929;28;20307;-71
2021/11/24 05:54:15;;;;;;;2.83;2.00;;;8.40;99.90;;;;;;5069551;28;20775;-70
2021/11/24 05:56:42;;;;;;;2.63;2.23;;;8.40;99.90;;;;;;5060372;28;20625;-71
2021/11/24 05:59:11;;;;;;;2.10;1.77;;;8.40;99.90;;;;;;5066725;28;20211;-70
2021/11/24 06:01:38;;;;;;;1.97;1.70;;;8.40;99.90;;;;;;5064215;28;20247;-71
2021/11/24 06:04:07;;;;;;;1.87;1.30;;;8.50;99.90;;;;;;5056430;28;20263;-71
2021/11/24 06:06:36;;;;;;;1.93;1.50;;;8.50;99.90;;;;;;5059302;28;20704;-71
2021/11/24 06:09:04;;;;;;;1.57;1.30;;;8.50;99.90;;;;;;5067000;28;20731;-71
2021/11/24 06:11:31;;;;;;;1.60;1.30;;;8.50;99.90;;;;;;5061395;28;20353;-71
2021/11/24 06:13:58;;;;;;;1.30;1.20;;;8.50;99.90;;;;;;5065771;28;20201;-71
2021/11/24 06:16:25;;;;;;;1.03;1.00;;;8.60;99.90;;;;;;5059709;28;20190;-71
2021/11/24 06:18:52;;;;;;;0.90;0.90;;;8.60;99.90;;;;;;5065408;28;21234;-70
2021/11/24 06:21:22;;;;;;;0.73;0.60;;;8.60;99.90;;;;;;5059103;28;20667;-71
2021/11/24 06:23:51;;;;;;;0.70;0.60;;;8.60;99.90;;;;;;5063524;28;20217;-71
2021/11/24 06:26:20;;;;;;;0.70;0.70;;;8.60;99.90;;;;;;5061559;28;20289;-71
2021/11/24 06:28:48;;;;;;;0.50;0.50;;;8.70;99.90;;;;;;5061112;28;20725;-70
2021/11/24 06:31:16;;;;;;;0.93;0.60;;;8.70;99.90;;;;;;5066872;28;20206;-71
2021/11/24 06:33:43;;;;;;;0.60;0.60;;;8.70;99.90;;;;;;5060716;28;20212;-71
2021/11/24 06:36:11;;;;;;;0.70;0.70;;;8.70;99.90;;;;;;5056052;28;20195;-70
2021/11/24 06:38:38;;;;;;;0.67;0.67;;;8.70;99.90;;;;;;5060082;28;20270;-71
2021/11/24 06:41:06;;;;;;;1.33;0.73;;;8.80;99.90;;;;;;5052282;28;20562;-71
2021/11/24 06:43:33;;;;;;;0.67;0.67;;;8.80;99.90;;;;;;5064027;28;20575;-70
2021/11/24 06:46:01;;;;;;;0.60;0.60;;;8.80;99.90;;;;;;5065653;28;20389;-71
2021/11/24 06:48:28;;;;;;;0.83;0.70;;;8.80;99.90;;;;;;5065567;28;20265;-71
2021/11/24 06:50:55;;;;;;;0.60;0.60;;;8.90;99.90;;;;;;5067370;28;20217;-71
2021/11/24 06:53:22;;;;;;;0.83;0.70;;;8.90;99.90;;;;;;5065112;28;20658;-71
2021/11/24 06:55:49;;;;;;;0.70;0.70;;;8.90;99.90;;;;;;5054991;28;20346;-70
2021/11/24 06:58:17;;;;;;;2.20;1.00;;;9.00;99.90;;;;;;5045246;28;20968;-71
2021/11/24 07:00:45;;;;;;;1.10;1.00;;;9.00;99.90;;;;;;5064667;28;20258;-71
2021/11/24 07:03:12;;;;;;;0.90;0.70;;;9.00;99.90;;;;;;5045953;28;20326;-71
2021/11/24 07:05:39;;;;;;;1.40;0.90;;;9.00;99.90;;;;;;5038250;28;20609;-70
2021/11/24 07:08:06;;;;;;;1.80;0.90;;;9.00;99.90;;;;;;5042205;28;21374;-70
2021/11/24 07:10:34;;;;;;;1.07;0.97;;;9.00;99.90;;;;;;5050575;28;20211;-70
2021/11/24 07:13:01;;;;;;;1.90;1.23;;;9.00;99.90;;;;;;5052326;28;20568;-70
2021/11/24 07:15:30;;;;;;;1.70;1.00;;;9.00;99.90;;;;;;5044698;28;20678;-70
2021/11/24 07:17:57;;;;;;;2.40;1.83;;;9.00;99.90;;;;;;5045982;28;20201;-70
2021/11/24 07:20:24;;;;;;;4.03;1.90;;;9.10;99.90;;;;;;5049240;28;20569;-70
2021/11/24 07:22:51;;;;;;;2.93;2.03;;;9.10;99.90;;;;;;5040131;28;20282;-70
2021/11/24 07:25:18;;;;;;;2.23;1.80;;;9.10;99.90;;;;;;5044924;28;20285;-70
2021/11/24 07:27:46;;;;;;;1.70;1.60;;;9.10;99.90;;;;;;5044982;28;20288;-71
2021/11/24 07:30:14;;;;;;;2.13;1.93;;;9.10;99.90;;;;;;5043356;28;20249;-71
2021/11/24 07:32:42;;;;;;;3.60;1.93;;;9.10;99.90;;;;;;5045284;28;20567;-70
2021/11/24 07:35:10;;;;;;;2.70;1.97;;;9.10;99.90;;;;;;5044242;28;20558;-71
2021/11/24 07:37:37;;;;;;;2.88;2.03;;;9.10;99.90;;;;;;5042110;28;20440;-70
2021/11/24 07:40:06;;;;;;;3.00;2.00;;;9.20;99.90;;;;;;5043607;28;20443;-70
2021/11/24 07:42:33;;;;;;;3.57;1.97;;;9.30;99.90;;;;;;5050709;28;20211;-70
2021/11/24 07:45:01;;;;;;;13.65;8.00;;;9.30;99.90;;;;;;5045003;28;20598;-70
2021/11/24 07:47:28;;;;;;;12.13;7.40;;;9.50;99.90;;;;;;5055944;28;20266;-70
2021/11/24 07:49:56;;;;;;;12.03;6.73;;;9.70;99.90;;;;;;5042221;28;20773;-70
2021/11/24 07:52:24;;;;;;;8.77;5.67;;;9.60;99.90;;;;;;5062849;28;20448;-70
2021/11/24 07:54:51;;;;;;;6.03;4.27;;;9.90;99.90;;;;;;5044355;28;20232;-70
2021/11/24 07:57:20;;;;;;;6.43;4.03;;;9.90;99.90;;;;;;5047770;28;20207;-70
2021/11/24 07:59:48;;;;;;;3.70;3.07;;;9.90;99.90;;;;;;5042514;28;20207;-70
2021/11/24 08:02:15;;;;;;;4.93;3.00;;;9.90;99.90;;;;;;5045800;28;20212;-70
2021/11/24 08:04:42;;;;;;;3.53;3.00;;;10.10;99.90;;;;;;5042457;28;20192;-70
2021/11/24 08:07:10;;;;;;;2.20;2.00;;;10.20;99.90;;;;;;5043326;28;20287;-71
2021/11/24 08:09:38;;;;;;;3.17;2.17;;;10.30;99.90;;;;;;5043838;28;20298;-70
2021/11/24 08:12:06;;;;;;;2.57;1.80;;;10.30;99.90;;;;;;5045198;28;20199;-70
2021/11/24 08:14:33;;;;;;;3.77;2.40;;;10.30;99.90;;;;;;5041138;28;20722;-70
2021/11/24 08:17:00;;;;;;;2.63;1.70;;;10.30;99.90;;;;;;5044491;28;20725;-70
2021/11/24 08:19:27;;;;;;;1.93;1.70;;;10.30;99.90;;;;;;5040675;28;20216;-70
2021/11/24 08:21:54;;;;;;;1.80;1.30;;;10.30;99.90;;;;;;5048137;28;20274;-71
2021/11/24 08:24:23;;;;;;;1.58;1.48;;;10.40;99.90;;;;;;5048233;28;20447;-70
2021/11/24 08:26:50;;;;;;;1.67;1.57;;;10.40;99.90;;;;;;5041002;28;20283;-70
2021/11/24 08:29:17;;;;;;;1.77;1.30;;;10.50;99.90;;;;;;5040156;28;20240;-70
2021/11/24 08:31:44;;;;;;;1.97;1.47;;;10.60;99.90;;;;;;5044140;28;20201;-70
2021/11/24 08:34:12;;;;;;;3.40;1.40;;;10.70;99.90;;;;;;5042650;28;20260;-70
2021/11/24 08:36:40;;;;;;;2.17;1.60;;;10.80;99.90;;;;;;5034872;28;20452;-71
2021/11/24 08:39:08;;;;;;;1.60;1.40;;;10.80;99.90;;;;;;5043656;28;20298;-71
2021/11/24 08:41:36;;;;;;;1.20;1.10;;;11.00;99.90;;;;;;5041876;28;20229;-71
2021/11/24 08:44:04;;;;;;;1.70;1.27;;;11.20;99.90;;;;;;5046641;28;20777;-70
2021/11/24 08:46:31;;;;;;;2.33;1.07;;;11.30;99.90;;;;;;5046655;28;20232;-71
2021/11/24 08:48:58;;;;;;;1.20;1.10;;;11.50;99.90;;;;;;5051041;28;20639;-71
2021/11/24 08:51:25;;;;;;;1.50;1.38;;;11.60;99.90;;;;;;5045243;28;20969;-71
2021/11/24 08:53:53;;;;;;;1.20;1.10;;;11.60;99.90;;;;;;5041992;28;20261;-70
2021/11/24 08:56:20;;;;;;;1.60;1.50;;;11.80;99.90;;;;;;5044969;28;20244;-71
2021/11/24 08:58:48;;;;;;;1.80;1.43;;;11.80;99.90;;;;;;5048802;28;20204;-70
2021/11/24 09:01:15;;;;;;;2.03;1.40;;;11.90;99.90;;;;;;5044491;28;20227;-71
2021/11/24 09:03:42;;;;;;;1.33;1.10;;;11.90;99.90;;;;;;5046188;28;20251;-71
2021/11/24 09:06:11;;;;;;;1.73;1.30;;;11.90;99.90;;;;;;5044202;28;20302;-70
2021/11/24 09:08:38;;;;;;;1.40;1.17;;;11.90;99.90;;;;;;5049243;28;20304;-70
2021/11/24 09:11:05;;;;;;;3.67;1.70;;;11.80;99.90;;;;;;5044572;28;20277;-71
2021/11/24 09:13:32;;;;;;;1.90;1.80;;;11.70;99.90;;;;;;5047515;28;20735;-71
2021/11/24 09:16:01;;;;;;;1.67;1.30;;;11.70;99.90;;;;;;5045281;28;20611;-71
2021/11/24 09:18:28;;;;;;;2.23;1.60;;;11.70;99.90;;;;;;5047713;28;20255;-71
2021/11/24 09:20:55;;;;;;;1.47;1.13;;;11.80;99.90;;;;;;5045189;28;20611;-71
2021/11/24 09:23:24;;;;;;;1.73;1.20;;;11.90;99.90;;;;;;5047953;28;20297;-71
2021/11/24 09:25:53;;;;;;;6.57;1.20;;;11.90;99.90;;;;;;5044622;28;20649;-71
2021/11/24 09:28:24;;;;;;;1.80;1.37;;;11.80;99.90;;;;;;5048406;28;20658;-71
2021/11/24 09:30:51;;;;;;;1.87;1.00;;;11.80;99.90;;;;;;5042338;28;20220;-71
2021/11/24 09:33:20;;;;;;;0.93;0.80;;;11.70;99.90;;;;;;5047506;28;20409;-70
2021/11/24 09:35:47;;;;;;;0.97;0.90;;;11.70;99.90;;;;;;5051328;28;20475;-71
2021/11/24 09:38:14;;;;;;;1.67;0.87;;;11.80;99.90;;;;;;5046542;28;20301;-71
2021/11/24 09:40:42;;;;;;;0.90;0.70;;;11.90;99.90;;;;;;5046514;28;20199;-71
2021/11/24 09:43:11;;;;;;;1.20;1.10;;;12.00;99.90;;;;;;5051371;28;20716;-71
2021/11/24 09:45:40;;;;;;;1.50;1.10;;;12.10;99.90;;;;;;5049228;28;20314;-70
2021/11/24 09:48:07;;;;;;;1.03;0.93;;;12.00;99.90;;;;;;5048377;28;20212;-70
2021/11/24 09:50:38;;;;;;;1.13;0.80;;;12.00;99.90;;;;;;5048427;28;20256;-70
2021/11/24 09:53:05;;;;;;;2.60;1.40;;;12.10;99.90;;;;;;5046416;28;20202;-71
2021/11/24 09:55:36;;;;;;;1.53;1.23;;;12.10;99.90;;;;;;5048825;28;20717;-70
2021/11/24 09:58:04;;;;;;;1.10;1.00;;;12.10;99.90;;;;;;5046621;28;20189;-70
2021/11/24 10:00:32;;;;;;;1.60;1.13;;;12.20;99.90;;;;;;5043826;28;20276;-70
2021/11/24 10:03:00;;;;;;;1.93;1.20;;;12.20;99.90;;;;;;5049391;28;20219;-71
2021/11/24 10:05:28;;;;;;;1.23;1.10;;;12.20;99.90;;;;;;5042750;28;20578;-70
2021/11/24 10:07:57;;;;;;;1.53;1.13;;;12.20;99.90;;;;;;5044750;28;20304;-70
2021/11/24 10:10:25;;;;;;;1.50;1.20;;;12.30;99.90;;;;;;5046400;28;20664;-71
2021/11/24 10:12:53;;;;;;;2.20;1.47;;;12.40;99.90;;;;;;5049148;28;20514;-70
2021/11/24 10:15:41;;;;;;;2.03;1.70;;;12.50;99.90;;;;;;5053315;28;20268;-71
2021/11/24 10:18:15;;;;;;;5.13;1.70;;;12.60;99.90;;;;;;5044881;28;20224;-70
2021/11/24 10:20:52;;;;;;;1.70;1.20;;;12.80;99.90;;;;;;5043099;28;20228;-70
2021/11/24 10:23:27;;;;;;;1.65;1.38;;;12.90;99.90;;;;;;5042898;28;20448;-70
2021/11/24 10:25:54;;;;;;;2.80;1.50;;;12.80;99.90;;;;;;5043657;28;20452;-70
2021/11/24 10:28:27;;;;;;;1.83;1.10;;;12.80;99.90;;;;;;5044124;28;20209;-71
2021/11/24 10:30:56;;;;;;;1.70;1.20;;;12.80;99.90;;;;;;5044696;28;20275;-72
2021/11/24 10:33:26;;;;;;;1.40;0.90;;;12.80;99.90;;;;;;5052690;28;20270;-72
2021/11/24 10:36:12;;;;;;;1.00;0.90;;;12.90;99.90;;;;;;5058134;28;20196;-72
2021/11/24 10:38:42;;;;;;;2.33;1.33;;;12.90;99.90;;;;;;5055161;28;20203;-72
2021/11/24 10:41:11;;;;;;;3.57;2.60;;;13.00;99.90;;;;;;5057004;28;20201;-72
2021/11/24 10:43:45;;;;;;;2.53;2.30;;;13.00;99.90;;;;;;5064987;28;20186;-72
2021/11/24 10:46:14;;;;;;;2.63;1.87;;;13.00;99.90;;;;;;5055267;28;20576;-72
2021/11/24 10:48:42;;;;;;;1.50;1.40;;;12.90;99.90;;;;;;5064300;28;20209;-72
2021/11/24 10:51:28;;;;;;;1.33;1.20;;;12.90;99.90;;;;;;5059786;28;20709;-72
2021/11/24 10:54:12;;;;;;;1.07;1.00;;;12.80;99.90;;;;;;5050701;28;20692;-72
2021/11/24 10:57:14;;;;;;;1.20;1.10;;;12.80;99.90;;;;;;5060114;28;20210;-72
2021/11/24 10:59:44;;;;;;;0.93;0.93;;;12.80;99.90;;;;;;4995609;28;20196;-72
2021/11/24 11:02:33;;;;;;;1.30;1.20;;;12.70;99.90;;;;;;5018716;28;20221;-72
2021/11/24 11:05:03;;;;;;;1.27;1.10;;;12.70;99.90;;;;;;4909796;29;20213;-73
2021/11/24 11:07:32;;;;;;;1.57;0.93;;;12.60;99.90;;;;;;4922899;29;20600;-72
2021/11/24 11:10:06;;;;;;;1.07;0.97;;;12.50;99.90;;;;;;4923225;29;20241;-72
2021/11/24 11:12:35;;;;;;;1.53;1.13;;;12.40;99.90;;;;;;4914210;29;20496;-72
2021/11/24 11:15:19;;;;;;;0.73;0.70;;;12.30;99.90;;;;;;4909927;29;20374;-72
2021/11/24 11:17:54;;;;;;;0.83;0.83;;;12.20;99.90;;;;;;4924886;29;20344;-72
2021/11/24 11:20:22;;;;;;;1.30;1.20;;;12.10;99.90;;;;;;4922989;29;20218;-72
2021/11/24 11:22:54;;;;;;;1.77;1.00;;;12.20;99.90;;;;;;4924043;29;20214;-72
2021/11/24 11:25:22;;;;;;;2.90;1.07;;;12.10;99.90;;;;;;4910035;29;20572;-72
2021/11/24 11:27:50;;;;;;;1.20;0.90;;;12.10;99.90;;;;;;4920998;29;20206;-72
2021/11/24 11:30:17;;;;;;;0.90;0.90;;;12.20;99.90;;;;;;4935670;28;20231;-72
2021/11/24 11:32:46;;;;;;;0.90;0.90;;;12.30;99.90;;;;;;4965886;28;20284;-72
2021/11/24 11:35:15;;;;;;;2.07;1.10;;;12.30;99.90;;;;;;4968827;28;20280;-72
2021/11/24 11:37:42;;;;;;;1.10;1.00;;;12.30;99.90;;;;;;4937872;28;20283;-71
2021/11/24 11:40:11;;;;;;;1.67;1.00;;;12.10;99.90;;;;;;4960578;28;20208;-71
2021/11/24 11:42:41;;;;;;;1.27;1.17;;;12.10;99.90;;;;;;5041832;28;20208;-72
2021/11/24 11:45:11;;;;;;;1.10;0.80;;;12.10;99.90;;;;;;5063550;28;20250;-72
2021/11/24 11:47:43;;;;;;;0.90;0.80;;;12.00;99.90;;;;;;5061926;28;20209;-72
2021/11/24 11:50:11;;;;;;;0.80;0.80;;;12.00;99.90;;;;;;5061556;28;20719;-72
2021/11/24 11:52:39;;;;;;;1.43;1.17;;;12.00;99.90;;;;;;5056221;28;20253;-72
2021/11/24 11:55:20;;;;;;;1.30;1.20;;;12.00;99.90;;;;;;5061388;28;20247;-72
2021/11/24 11:57:48;;;;;;;0.90;0.90;;;11.90;99.90;;;;;;5056083;28;20250;-72
2021/11/24 12:00:17;;;;;;;1.20;1.10;;;11.80;99.90;;;;;;5059135;28;20205;-72
2021/11/24 12:02:52;;;;;;;3.23;0.90;;;11.80;99.90;;;;;;5056552;28;20261;-72
2021/11/24 12:05:20;;;;;;;2.43;1.17;;;11.80;99.90;;;;;;5047647;28;20229;-72
2021/11/24 12:08:06;;;;;;;1.03;0.90;;;11.90;99.90;;;;;;5058004;28;20259;-72
2021/11/24 12:10:59;;;;;;;0.90;0.90;;;11.90;99.90;;;;;;5049164;28;20218;-72
2021/11/24 12:13:32;;;;;;;1.03;0.87;;;11.80;99.90;;;;;;5066695;28;20234;-72
2021/11/24 12:16:25;;;;;;;0.90;0.83;;;11.80;99.90;;;;;;5051845;28;20346;-72
2021/11/24 12:19:15;;;;;;;1.70;1.00;;;11.90;99.90;;;;;;5047219;28;20734;-73
2021/11/24 12:21:49;;;;;;;4.37;1.20;;;12.00;99.90;;;;;;5049839;28;20254;-72
2021/11/24 12:24:17;;;;;;;0.83;0.83;;;12.00;99.90;;;;;;5052861;28;20201;-72
2021/11/24 12:26:55;;;;;;;1.70;1.10;;;12.10;99.90;;;;;;5046499;28;20673;-72
2021/11/24 12:29:45;;;;;;;0.77;0.77;;;12.10;99.90;;;;;;5053548;28;20254;-72
2021/11/24 12:32:12;;;;;;;1.63;1.07;;;12.20;99.90;;;;;;5015954;28;20234;-72
2021/11/24 12:34:47;;;;;;;1.00;0.90;;;12.20;99.90;;;;;;5025161;28;20206;-72
2021/11/24 12:37:21;;;;;;;1.30;0.90;;;12.30;99.90;;;;;;5024723;28;20935;-71
2021/11/24 12:39:49;;;;;;;0.87;0.77;;;12.40;99.90;;;;;;5013712;28;20240;-72
2021/11/24 12:42:24;;;;;;;1.47;0.93;;;12.40;99.90;;;;;;5007630;28;20199;-72
2021/11/24 12:44:54;;;;;;;0.67;0.67;;;12.50;99.90;;;;;;5023474;28;20572;-72
2021/11/24 12:47:22;;;;;;;2.40;1.70;;;12.50;99.90;;;;;;5023095;28;20204;-72
2021/11/24 12:49:49;;;;;;;2.63;1.40;;;12.50;99.90;;;;;;5023790;28;20213;-72
2021/11/24 12:52:19;;;;;;;1.43;1.00;;;12.50;99.90;;;;;;5011219;28;20210;-72
2021/11/24 12:54:48;;;;;;;0.80;0.80;;;12.60;99.90;;;;;;5010668;28;20244;-72
2021/11/24 12:57:15;;;;;;;1.03;0.97;;;12.50;99.90;;;;;;5007530;28;20253;-72
2021/11/24 12:59:43;;;;;;;0.93;0.77;;;12.50;99.90;;;;;;5008490;28;20798;-72
2021/11/24 13:02:14;;;;;;;0.70;0.70;;;12.50;99.90;;;;;;5020891;28;20198;-72